Garden Spring, Nevada Weather observations

Data are for 10 minute period ending at time listed.
 Day   Time    Ave.   Ave.  Ave.  Vector   Max.   Stn.    Total    Solar   Ave.  
  of    of     Air    Rel.  Wind   Wind    Wind   Baro.  Precip.   Rad.    Soil  
Year   Day     Temp.  Hum.  Speed  Dir.    Gust   Pres.                    Temp. 
2026   (PST)    F      %     mph   deg.    mph     mb.     in.     W/m2     F    
--------------------------------------------------------------------------------- 
 123   14:20   76.6    12    6.2   165     14.7   847.0    0.00     704    73.7  
 123   14:30   76.8    12    6.8   201     16.8   846.9    0.00     289    74.2  
 123   14:40   74.1    13    7.7   198     16.9   846.9    0.00     117    74.2  
 123   14:50   73.8    14    9.5   218     16.7   846.8    0.00     228    74.4  
 123   15:00   74.0    14    7.2   248     13.2   846.7    0.00     488    74.8  
 123   15:10   75.5    14    6.6   208     15.4   846.6    0.00     570    75.4  
 123   15:20   74.8    14    5.6   229     12.8   846.5    0.00     382    75.5  
 123   15:30   74.8    14    6.4   203     13.0   846.3    0.00     186    75.6  
 123   15:40   74.2    14    5.8   182     10.4   846.2    0.00     282    75.5  
 123   15:50   74.9    14    7.2   181     12.3   846.1    0.00     316    75.7  
 123   16:00   74.3    14    6.7   177     12.3   846.0    0.00     161    75.7  
 123   16:10   74.1    14    6.7   190     13.8   846.0    0.00     181    75.7  
 123   16:20   73.4    14    7.2   186     12.5   846.0    0.00      70    75.7  
 123   16:30   72.9    14    4.1   191     10.3   846.0    0.00      35    75.7  
 123   16:40   71.6    18    9.1   162     16.6   846.1    0.00      19    75.6  
 123   16:50   70.6    18   11.8   143     24.8   846.2    0.00      19    75.5  
 123   17:00   69.2    21   10.8   193     32.8   846.7    0.00      14    75.4  
 123   17:10   66.9    25    5.4   230     16.8   846.9    0.00      24    74.8  
 123   17:20   66.0    28    8.3   353     16.8   846.6    0.00      19    74.8  
 123   17:30   64.5    30    7.9   353     16.5   846.6    0.00      11    74.9  
 123   17:40   65.3    28    7.2   103     18.2   846.9    0.00       8    74.8  
 123   17:50   64.2    36   10.7   127     20.6   847.5    0.00       7    74.6  
 123   18:00   61.8    43    5.9    98     12.1   846.9    0.00       9    74.2  
 123   18:10   62.1    40    7.1    74     14.3   846.7    0.00       4    74.2  
 123   18:20   61.4    41   10.6    20     20.7   846.4    0.00       4    74.1  
 123   18:30   61.0    40    8.0    22     13.7   846.3    0.00       2    74.1  
 123   18:40   61.1    40    5.0   330      9.0   846.3    0.00       1    74.1  
 123   18:50   60.8    42    5.2   275      8.6   846.4    0.00       0    73.9  
 123   19:00   60.8    41    4.9   283      7.2   846.5    0.00       0    73.8  
 123   19:10   61.1    40    5.3   271      8.6   846.5    0.00       0    73.6  
 123   19:20   61.2    39    3.0   304      5.0   846.5    0.00       0    73.4  
 123   19:30   60.9    38    3.4   279      6.2   846.5    0.00       0    73.1  
 123   19:40   60.5    38    4.3   266      7.4   846.5    0.00       0    72.9  
 123   19:50   59.1    41    4.9   283      6.5   846.7    0.00       0    72.6  
 123   20:00   58.8    41    5.1   274      7.0   846.8    0.00       0    72.4  
 123   20:10   60.7    36    4.1   258      6.9   847.0    0.00       0    72.4  
 123   20:20   60.8    37    1.7   316      4.0   847.2    0.00       0    72.3  
 123   20:30   62.6    31    4.9   258     12.8   847.5    0.00       0    72.1  
 123   20:40   63.4    31    6.3   113     17.6   847.6    0.00       0    72.1  
 123   20:50   64.6    26    7.6   134     16.0   847.3    0.00       0    72.1  
 123   21:00   66.5    21   11.4   155     19.8   847.1    0.00       0    72.2  
 123   21:10   67.1    21    9.4   159     17.0   847.1    0.00       0    72.2  
 123   21:20   65.3    27   10.0   120     20.9   847.2    0.00       0    71.7  
 123   21:30   64.2    29   10.1   106     19.8   847.2    0.00       0    71.2  
 123   21:40   63.8    29    8.4   111     17.0   847.3    0.00       0    71.0  
 123   21:50   64.6    26    6.0   145     21.1   847.1    0.00       0    70.8  
 123   22:00   65.6    24   14.7   140     31.9   847.0    0.00       0    70.7  
 123   22:10   65.2    26    6.4    99     16.5   846.8    0.00       0    70.6  
 123   22:20   64.8    25    5.1   164     10.4   846.8    0.00       0    70.3  
 123   22:30   64.1    27    4.1   112      7.4   847.0    0.00       0    70.1  
 123   22:40   62.3    32    3.2    92      7.1   846.9    0.00       0    69.8  
 123   22:50   61.4    32    2.8    91      6.3   847.0    0.00       0    69.5  
 123   23:00   61.1    33    3.6    69      8.7   847.0    0.00       0    69.3  
 123   23:10   60.9    33    2.0    76      4.9   847.0    0.00       0    69.1  
 123   23:20   59.8    35    1.7   298      4.1   847.1    0.00       0    69.0  
 123   23:30   59.2    35    1.9   258      4.2   847.1    0.00       0    68.9  
 123   23:40   59.0    36    2.6   330      5.5   847.1    0.00       0    68.7  
 123   23:50   59.1    36    2.0   314      4.3   847.1    0.00       0    68.6  
 124    0:00   59.0    36    1.6   240      3.4   847.0    0.00       0    68.5  
 124    0:10   57.4    40    3.3   250      6.7   846.9    0.00       0    68.3  
 124    0:20   57.0    41    3.8   257      5.8   846.9    0.00       0    68.2  
 124    0:30   57.3    41    2.5   247      5.5   846.9    0.00       0    68.1  
 124    0:40   57.8    40    2.2   210      3.9   847.0    0.00       0    68.0  
 124    0:50   58.7    39    2.0   346      6.0   847.0    0.00       0    67.9  
 124    1:00   58.2    40    1.3   290      3.9   847.0    0.00       0    67.9  
 124    1:10   57.7    42    2.3   261      5.8   847.0    0.00       0    67.7  
 124    1:20   56.9    44    3.5   259      6.2   847.0    0.00       0    67.7  
 124    1:30   57.9    42    3.0   283      6.1   846.8    0.00       0    67.5  
 124    1:40   58.0    42    1.6   261      4.0   846.8    0.00       0    67.3  
 124    1:50   56.7    45    3.3   285      6.4   846.8    0.00       0    67.2  
 124    2:00   56.3    46    3.2   285      5.7   846.8    0.00       0    67.1  
 124    2:10   56.0    46    4.3   270      6.3   846.7    0.00       0    67.0  
 124    2:20   55.3    48    4.0   257      5.7   846.8    0.00       0    66.8  
 124    2:30   56.0    47    3.9   277      5.4   846.9    0.00       0    66.7  
 124    2:40   55.6    48    3.9   286      5.4   846.9    0.00       0    66.6  
 124    2:50   55.7    47    3.9   267      5.3   846.9    0.00       0    66.4  
 124    3:00   55.1    48    4.0   279      4.9   846.9    0.00       0    66.3  
 124    3:10   55.0    48    3.6   265      4.9   846.9    0.00       0    66.1  
 124    3:20   53.7    50    3.6   276      4.7   846.9    0.00       0    65.9  
 124    3:30   53.3    51    3.5   274      5.4   846.8    0.00       0    65.8  
 124    3:40   53.1    51    3.2   279      4.6   846.7    0.00       0    65.7  
 124    3:50   53.2    51    3.9   272      5.4   846.7    0.00       0    65.5  
 124    4:00   53.6    50    2.8   269      4.7   846.7    0.00       0    65.5  
 124    4:10   53.6    50    2.6   284      4.3   846.8    0.00       0    65.4  
 124    4:20   53.2    52    3.4   267      4.3   846.7    0.00       0    65.3  
 124    4:30   53.6    51    3.2   271      4.4   846.7    0.00       1    65.3  
 124    4:40   54.0    50    2.2   272      3.8   846.7    0.00       1    65.2  
 124    4:50   54.2    51    2.9   254      4.8   846.7    0.00       3    65.2  
 124    5:00   54.5    50    2.5   263      4.3   846.9    0.00       6    65.1  
 124    5:10   54.8    49    3.0   282      4.1   846.9    0.00      16    65.0  
 124    5:20   54.4    51    3.4   261      4.9   847.1    0.00      25    64.9  
 124    5:30   54.9    50    3.1   259      4.3   847.2    0.00      37    64.8  
 124    5:40   55.3    50    2.0   259      2.9   847.3    0.00      46    64.7  
 124    5:50   56.0    51    1.1   338      3.2   847.3    0.00      80    64.7  
 124    6:00   57.2    47    2.0   260      3.9   847.3    0.00      90    64.6  
 124    6:10   58.4    44    1.7    46      3.9   847.3    0.00     112    64.6  
 124    6:20   59.1    40    3.2   121      7.7   847.3    0.00     122    64.8  
 124    6:30   59.8    36    3.7   152      7.3   847.2    0.00     149    65.0  
 124    6:40   59.8    35    4.1   173      7.3   847.3    0.00     157    65.0  
 124    6:50   60.3    34    3.4   161      5.7   847.4    0.00     196    64.9  
 124    7:00   60.9    33    2.3   133      5.4   847.3    0.00     221    64.8  
 124    7:10   61.7    33    3.8   123      7.9   847.4    0.00     213    64.8  
 124    7:20   62.3    32    3.3   139      6.9   847.5    0.00     376    64.8  
 124    7:30   62.9    32    5.7   150     15.3   847.4    0.00     236    65.0  
 124    7:40   63.4    33    8.8   160     17.6   847.4    0.00     521    65.0  
 124    7:50   64.6    32   10.8   160     17.8   847.4    0.00     769    65.5  
 124    8:00   65.8    31    9.4   175     17.5   847.4    0.00     797    65.8  
 124    8:10   65.0    32   10.6   169     17.4   847.4    0.00     515    65.6  
 124    8:20   64.5    33   12.3   176     19.0   847.4    0.00     697    65.0  
 124    8:30   63.0    34   10.4   184     17.6   847.4    0.00     315    64.7  
 124    8:40   63.9    33   10.6   176     18.7   847.5    0.00     560    64.5  
 124    8:50   63.8    33   11.3   181     20.7   847.5    0.00     625    64.7  
 124    9:00   64.8    32   11.6   180     19.4   847.6    0.00     795    65.0  
 124    9:10   65.3    32   10.6   171     18.7   847.6    0.00     849    65.3  
 124    9:20   65.3    31   11.5   174     19.5   847.5    0.00     879    65.4  
 124    9:30   65.1    31   11.8   183     21.2   847.5    0.00     894    65.4  
 124    9:40   65.6    30   11.8   167     18.5   847.6    0.00     904    65.6  
 124    9:50   65.7    30   10.7   176     19.0   847.6    0.00     869    65.7  
 124   10:00   65.2    30   10.7   185     18.2   847.7    0.00     706    65.8  
 124   10:10   64.3    31   11.6   184     18.5   847.6    0.00     801    65.8  
 124   10:20   65.0    30   11.4   183     20.6   847.6    0.00     926    66.0  
 124   10:30   65.8    26   12.7   183     22.5   847.6    0.00     917    66.3  
 124   10:40   65.6    24   11.6   176     21.7   847.5    0.00     997    66.5  
 124   10:50   66.1    24   10.6   177     17.4   847.4    0.00     917    66.7  
 124   11:00   66.3    25   10.9   183     20.0   847.3    0.00     924    66.8  
 124   11:10   66.0    25   12.0   183     18.5   847.3    0.00    1000    67.0  
 124   11:20   66.2    24   11.4   185     20.1   847.3    0.00     947    67.2  
 124   11:30   66.0    23   11.4   180     22.6   847.3    0.00     916    67.4  
 124   11:40   66.4    23   13.1   177     23.8   847.2    0.00     899    67.7  
 124   11:50   65.7    22   10.9   193     21.7   847.1    0.00     731    67.9  
 124   12:00   65.7    22   12.3   190     20.4   847.1    0.00     703    68.2  
 124   12:10   65.3    22   12.5   193     21.1   847.1    0.00     747    68.5  
 124   12:20   65.6    21   11.1   191     20.5   847.1    0.00     748    68.8  
 124   12:30   65.9    21   12.0   197     20.6   847.1    0.00     787    69.2  
 124   12:40   65.3    20   11.5   198     21.2   847.0    0.00     685    69.5  
 124   12:50   65.5    20   12.1   186     22.5   847.0    0.00     712    69.7  
 124   13:00   66.0    20   10.0   182     21.7   847.1    0.00     762    70.0  
 124   13:10   66.1    20   10.2   180     18.5   847.0    0.00     809    70.4  
 124   13:20   66.7    19   10.7   191     19.0   846.9    0.00     810    70.7  
 124   13:30   66.3    18   10.9   182     19.8   846.8    0.00     933    70.9  
 124   13:40   67.6    16    8.9   178     17.6   846.8    0.00     793    71.2  
 124   13:50   67.8    17   11.3   177     23.6   846.7    0.00     943    71.5  
 124   14:00   67.0    19    9.9   196     16.5   846.5    0.00     849    71.7  
 124   14:10   67.3    16   11.4   182     19.1   846.4    0.00     757    71.7  

Return to Garden Spring, Nevada graphs page.


Western Regional Climate Center,wrcc@dri.edu